sensor_id;sensor_type;location;lat;lon;timestamp;P1;durP1;ratioP1;P2;durP2;ratioP2
42810;SDS011;28457;55.680;37.656;2022-07-12T00:00:23;3.50;;;3.10;;
42810;SDS011;28457;55.680;37.656;2022-07-12T00:02:51;3.20;;;2.90;;
42810;SDS011;28457;55.680;37.656;2022-07-12T00:05:22;4.05;;;3.13;;
42810;SDS011;28457;55.680;37.656;2022-07-12T00:07:51;4.28;;;2.95;;
42810;SDS011;28457;55.680;37.656;2022-07-12T00:10:19;4.57;;;3.25;;
42810;SDS011;28457;55.680;37.656;2022-07-12T00:12:48;4.40;;;2.72;;
42810;SDS011;28457;55.680;37.656;2022-07-12T00:15:17;4.57;;;3.75;;
42810;SDS011;28457;55.680;37.656;2022-07-12T00:17:46;3.90;;;3.10;;
42810;SDS011;28457;55.680;37.656;2022-07-12T00:20:14;4.15;;;3.70;;
42810;SDS011;28457;55.680;37.656;2022-07-12T00:22:44;4.93;;;3.58;;
42810;SDS011;28457;55.680;37.656;2022-07-12T00:25:14;4.68;;;3.30;;
42810;SDS011;28457;55.680;37.656;2022-07-12T00:27:43;4.35;;;3.30;;
42810;SDS011;28457;55.680;37.656;2022-07-12T00:30:11;4.00;;;3.17;;
42810;SDS011;28457;55.680;37.656;2022-07-12T00:32:40;4.07;;;3.38;;
42810;SDS011;28457;55.680;37.656;2022-07-12T00:35:09;3.85;;;3.17;;
42810;SDS011;28457;55.680;37.656;2022-07-12T00:37:38;4.57;;;3.70;;
42810;SDS011;28457;55.680;37.656;2022-07-12T00:40:08;3.67;;;3.10;;
42810;SDS011;28457;55.680;37.656;2022-07-12T00:42:38;4.47;;;3.40;;
42810;SDS011;28457;55.680;37.656;2022-07-12T00:45:07;3.85;;;3.47;;
42810;SDS011;28457;55.680;37.656;2022-07-12T00:47:37;4.15;;;3.58;;
42810;SDS011;28457;55.680;37.656;2022-07-12T00:50:10;10.30;;;4.18;;
42810;SDS011;28457;55.680;37.656;2022-07-12T00:52:41;5.03;;;3.42;;
42810;SDS011;28457;55.680;37.656;2022-07-12T00:55:12;4.97;;;3.20;;
42810;SDS011;28457;55.680;37.656;2022-07-12T00:57:41;4.40;;;2.90;;
42810;SDS011;28457;55.680;37.656;2022-07-12T01:00:11;3.88;;;3.47;;
42810;SDS011;28457;55.680;37.656;2022-07-12T01:02:41;4.65;;;3.25;;
42810;SDS011;28457;55.680;37.656;2022-07-12T01:05:11;4.35;;;3.00;;
42810;SDS011;28457;55.680;37.656;2022-07-12T01:07:39;3.78;;;2.85;;
42810;SDS011;28457;55.680;37.656;2022-07-12T01:10:08;4.03;;;2.92;;
42810;SDS011;28457;55.680;37.656;2022-07-12T01:12:39;3.33;;;2.70;;
42810;SDS011;28457;55.680;37.656;2022-07-12T01:15:08;3.00;;;2.58;;
42810;SDS011;28457;55.680;37.656;2022-07-12T01:17:37;4.97;;;3.20;;
42810;SDS011;28457;55.680;37.656;2022-07-12T01:20:07;2.90;;;2.58;;
42810;SDS011;28457;55.680;37.656;2022-07-12T01:22:39;5.22;;;3.42;;
42810;SDS011;28457;55.680;37.656;2022-07-12T01:25:10;4.25;;;3.13;;
42810;SDS011;28457;55.680;37.656;2022-07-12T01:27:39;4.97;;;3.00;;
42810;SDS011;28457;55.680;37.656;2022-07-12T01:30:07;3.80;;;2.97;;
42810;SDS011;28457;55.680;37.656;2022-07-12T01:32:36;4.60;;;3.92;;
42810;SDS011;28457;55.680;37.656;2022-07-12T01:35:06;4.68;;;3.42;;
42810;SDS011;28457;55.680;37.656;2022-07-12T01:37:36;3.58;;;3.28;;
42810;SDS011;28457;55.680;37.656;2022-07-12T01:40:05;4.47;;;3.75;;
42810;SDS011;28457;55.680;37.656;2022-07-12T01:42:37;4.05;;;3.65;;
42810;SDS011;28457;55.680;37.656;2022-07-12T01:45:08;5.70;;;3.95;;
42810;SDS011;28457;55.680;37.656;2022-07-12T01:47:37;4.78;;;4.25;;
42810;SDS011;28457;55.680;37.656;2022-07-12T01:50:06;4.90;;;3.63;;
42810;SDS011;28457;55.680;37.656;2022-07-12T01:52:38;4.18;;;3.78;;
42810;SDS011;28457;55.680;37.656;2022-07-12T01:55:08;4.93;;;3.63;;
42810;SDS011;28457;55.680;37.656;2022-07-12T01:57:38;5.53;;;4.10;;
42810;SDS011;28457;55.680;37.656;2022-07-12T02:00:10;4.50;;;3.70;;
42810;SDS011;28457;55.680;37.656;2022-07-12T02:02:40;5.88;;;4.07;;
42810;SDS011;28457;55.680;37.656;2022-07-12T02:05:11;6.15;;;4.00;;
42810;SDS011;28457;55.680;37.656;2022-07-12T02:07:40;5.32;;;3.90;;
42810;SDS011;28457;55.680;37.656;2022-07-12T02:10:09;4.93;;;3.85;;
42810;SDS011;28457;55.680;37.656;2022-07-12T02:12:39;4.85;;;3.78;;
42810;SDS011;28457;55.680;37.656;2022-07-12T02:15:08;5.28;;;3.75;;
42810;SDS011;28457;55.680;37.656;2022-07-12T02:17:37;4.50;;;4.10;;
42810;SDS011;28457;55.680;37.656;2022-07-12T02:20:06;14.07;;;4.47;;
42810;SDS011;28457;55.680;37.656;2022-07-12T02:22:39;4.03;;;3.63;;
42810;SDS011;28457;55.680;37.656;2022-07-12T02:25:07;4.55;;;4.00;;
42810;SDS011;28457;55.680;37.656;2022-07-12T02:27:37;4.55;;;4.07;;
42810;SDS011;28457;55.680;37.656;2022-07-12T02:30:08;4.20;;;3.80;;
42810;SDS011;28457;55.680;37.656;2022-07-12T02:32:38;6.47;;;4.15;;
42810;SDS011;28457;55.680;37.656;2022-07-12T02:35:06;6.60;;;4.50;;
42810;SDS011;28457;55.680;37.656;2022-07-12T02:37:35;6.78;;;4.75;;
42810;SDS011;28457;55.680;37.656;2022-07-12T02:40:05;5.53;;;4.20;;
42810;SDS011;28457;55.680;37.656;2022-07-12T02:42:58;5.47;;;4.25;;
42810;SDS011;28457;55.680;37.656;2022-07-12T02:45:27;5.20;;;4.55;;
42810;SDS011;28457;55.680;37.656;2022-07-12T02:47:55;5.00;;;4.55;;
42810;SDS011;28457;55.680;37.656;2022-07-12T02:50:24;5.65;;;5.05;;
42810;SDS011;28457;55.680;37.656;2022-07-12T02:52:53;5.85;;;4.18;;
42810;SDS011;28457;55.680;37.656;2022-07-12T02:55:22;5.00;;;3.60;;
42810;SDS011;28457;55.680;37.656;2022-07-12T02:57:50;6.90;;;5.85;;
42810;SDS011;28457;55.680;37.656;2022-07-12T03:00:20;6.43;;;4.78;;
42810;SDS011;28457;55.680;37.656;2022-07-12T03:02:49;7.30;;;4.60;;
42810;SDS011;28457;55.680;37.656;2022-07-12T03:05:17;6.50;;;4.10;;
42810;SDS011;28457;55.680;37.656;2022-07-12T03:07:46;6.85;;;5.13;;
42810;SDS011;28457;55.680;37.656;2022-07-12T03:10:14;6.15;;;4.65;;
42810;SDS011;28457;55.680;37.656;2022-07-12T03:12:43;5.93;;;4.40;;
42810;SDS011;28457;55.680;37.656;2022-07-12T03:15:11;5.97;;;4.30;;
42810;SDS011;28457;55.680;37.656;2022-07-12T03:17:42;5.68;;;4.38;;
42810;SDS011;28457;55.680;37.656;2022-07-12T03:20:10;8.55;;;4.38;;
42810;SDS011;28457;55.680;37.656;2022-07-12T03:22:41;7.78;;;4.68;;
42810;SDS011;28457;55.680;37.656;2022-07-12T03:25:10;6.65;;;4.70;;
42810;SDS011;28457;55.680;37.656;2022-07-12T03:27:39;8.18;;;4.78;;
42810;SDS011;28457;55.680;37.656;2022-07-12T03:30:10;7.50;;;4.43;;
42810;SDS011;28457;55.680;37.656;2022-07-12T03:32:39;7.57;;;4.70;;
42810;SDS011;28457;55.680;37.656;2022-07-12T03:35:09;6.97;;;4.70;;
42810;SDS011;28457;55.680;37.656;2022-07-12T03:37:40;5.75;;;4.75;;
42810;SDS011;28457;55.680;37.656;2022-07-12T03:40:10;5.80;;;4.70;;
42810;SDS011;28457;55.680;37.656;2022-07-12T03:42:40;6.32;;;4.90;;
42810;SDS011;28457;55.680;37.656;2022-07-12T03:45:09;8.02;;;5.13;;
42810;SDS011;28457;55.680;37.656;2022-07-12T03:47:38;8.23;;;5.30;;
42810;SDS011;28457;55.680;37.656;2022-07-12T03:50:09;7.90;;;5.18;;
42810;SDS011;28457;55.680;37.656;2022-07-12T03:52:40;6.57;;;5.20;;
42810;SDS011;28457;55.680;37.656;2022-07-12T03:55:10;7.57;;;4.93;;
42810;SDS011;28457;55.680;37.656;2022-07-12T03:57:39;6.97;;;4.93;;
42810;SDS011;28457;55.680;37.656;2022-07-12T04:00:09;6.25;;;5.45;;
42810;SDS011;28457;55.680;37.656;2022-07-12T04:02:39;7.53;;;5.18;;
42810;SDS011;28457;55.680;37.656;2022-07-12T04:05:09;7.63;;;5.13;;
42810;SDS011;28457;55.680;37.656;2022-07-12T04:07:39;8.93;;;6.03;;
42810;SDS011;28457;55.680;37.656;2022-07-12T04:10:08;6.50;;;5.28;;
42810;SDS011;28457;55.680;37.656;2022-07-12T04:12:37;7.80;;;5.53;;
42810;SDS011;28457;55.680;37.656;2022-07-12T04:15:06;8.63;;;5.95;;
42810;SDS011;28457;55.680;37.656;2022-07-12T04:17:36;8.75;;;6.05;;
42810;SDS011;28457;55.680;37.656;2022-07-12T04:20:05;8.77;;;7.28;;
42810;SDS011;28457;55.680;37.656;2022-07-12T04:22:36;8.02;;;5.32;;
42810;SDS011;28457;55.680;37.656;2022-07-12T04:25:05;5.65;;;5.07;;
42810;SDS011;28457;55.680;37.656;2022-07-12T04:27:35;7.47;;;5.90;;
42810;SDS011;28457;55.680;37.656;2022-07-12T04:30:05;7.47;;;6.03;;
42810;SDS011;28457;55.680;37.656;2022-07-12T04:32:34;8.68;;;5.63;;
42810;SDS011;28457;55.680;37.656;2022-07-12T04:35:03;8.15;;;5.65;;
42810;SDS011;28457;55.680;37.656;2022-07-12T04:37:32;7.32;;;5.40;;
42810;SDS011;28457;55.680;37.656;2022-07-12T04:40:01;9.00;;;6.40;;
42810;SDS011;28457;55.680;37.656;2022-07-12T04:42:30;8.70;;;6.30;;
42810;SDS011;28457;55.680;37.656;2022-07-12T04:44:59;10.70;;;5.90;;
42810;SDS011;28457;55.680;37.656;2022-07-12T04:47:29;8.75;;;5.55;;
42810;SDS011;28457;55.680;37.656;2022-07-12T04:49:57;7.25;;;6.55;;
42810;SDS011;28457;55.680;37.656;2022-07-12T04:52:26;7.43;;;5.65;;
42810;SDS011;28457;55.680;37.656;2022-07-12T04:54:54;7.63;;;5.50;;
42810;SDS011;28457;55.680;37.656;2022-07-12T04:57:24;11.05;;;6.28;;
42810;SDS011;28457;55.680;37.656;2022-07-12T04:59:53;9.25;;;6.53;;
42810;SDS011;28457;55.680;37.656;2022-07-12T05:02:21;7.57;;;5.70;;
42810;SDS011;28457;55.680;37.656;2022-07-12T05:04:50;9.40;;;6.25;;
42810;SDS011;28457;55.680;37.656;2022-07-12T05:07:18;7.45;;;5.95;;
42810;SDS011;28457;55.680;37.656;2022-07-12T05:09:47;6.15;;;5.55;;
42810;SDS011;28457;55.680;37.656;2022-07-12T05:12:16;9.68;;;6.47;;
42810;SDS011;28457;55.680;37.656;2022-07-12T05:14:46;7.35;;;6.30;;
42810;SDS011;28457;55.680;37.656;2022-07-12T05:17:14;8.30;;;5.63;;
42810;SDS011;28457;55.680;37.656;2022-07-12T05:19:43;9.27;;;6.30;;
42810;SDS011;28457;55.680;37.656;2022-07-12T05:22:11;7.72;;;5.85;;
42810;SDS011;28457;55.680;37.656;2022-07-12T05:24:40;9.25;;;6.28;;
42810;SDS011;28457;55.680;37.656;2022-07-12T05:27:08;8.13;;;6.25;;
42810;SDS011;28457;55.680;37.656;2022-07-12T05:29:37;10.18;;;6.70;;
42810;SDS011;28457;55.680;37.656;2022-07-12T05:32:07;8.20;;;6.05;;
42810;SDS011;28457;55.680;37.656;2022-07-12T05:34:37;9.60;;;5.65;;
42810;SDS011;28457;55.680;37.656;2022-07-12T05:37:06;6.47;;;5.80;;
42810;SDS011;28457;55.680;37.656;2022-07-12T05:39:34;8.10;;;5.93;;
42810;SDS011;28457;55.680;37.656;2022-07-12T05:42:10;9.00;;;7.75;;
42810;SDS011;28457;55.680;37.656;2022-07-12T05:44:38;7.97;;;6.57;;
42810;SDS011;28457;55.680;37.656;2022-07-12T05:47:08;9.32;;;5.70;;
42810;SDS011;28457;55.680;37.656;2022-07-12T05:49:37;12.63;;;5.93;;
42810;SDS011;28457;55.680;37.656;2022-07-12T05:52:05;8.48;;;4.90;;
42810;SDS011;28457;55.680;37.656;2022-07-12T05:54:52;10.68;;;5.85;;
42810;SDS011;28457;55.680;37.656;2022-07-12T05:57:20;10.02;;;5.82;;
42810;SDS011;28457;55.680;37.656;2022-07-12T05:59:49;10.07;;;5.45;;
42810;SDS011;28457;55.680;37.656;2022-07-12T06:02:19;11.02;;;5.68;;
42810;SDS011;28457;55.680;37.656;2022-07-12T06:04:47;6.38;;;5.25;;
42810;SDS011;28457;55.680;37.656;2022-07-12T06:07:17;11.85;;;6.30;;
42810;SDS011;28457;55.680;37.656;2022-07-12T06:09:45;8.20;;;5.28;;
42810;SDS011;28457;55.680;37.656;2022-07-12T06:12:14;10.52;;;6.13;;
42810;SDS011;28457;55.680;37.656;2022-07-12T06:14:43;8.13;;;5.90;;
42810;SDS011;28457;55.680;37.656;2022-07-12T06:17:11;6.55;;;5.40;;
42810;SDS011;28457;55.680;37.656;2022-07-12T06:19:41;6.97;;;5.65;;
42810;SDS011;28457;55.680;37.656;2022-07-12T06:22:10;8.45;;;5.85;;
42810;SDS011;28457;55.680;37.656;2022-07-12T06:24:39;11.77;;;5.93;;
42810;SDS011;28457;55.680;37.656;2022-07-12T06:27:07;7.97;;;5.93;;
42810;SDS011;28457;55.680;37.656;2022-07-12T06:29:36;8.65;;;5.35;;
42810;SDS011;28457;55.680;37.656;2022-07-12T06:32:04;12.68;;;7.38;;
42810;SDS011;28457;55.680;37.656;2022-07-12T06:34:35;7.00;;;6.10;;
42810;SDS011;28457;55.680;37.656;2022-07-12T06:37:06;8.02;;;5.68;;
42810;SDS011;28457;55.680;37.656;2022-07-12T06:39:35;7.68;;;6.13;;
42810;SDS011;28457;55.680;37.656;2022-07-12T06:42:04;7.60;;;5.43;;
42810;SDS011;28457;55.680;37.656;2022-07-12T06:44:33;7.68;;;6.05;;
42810;SDS011;28457;55.680;37.656;2022-07-12T06:47:02;6.93;;;5.68;;
42810;SDS011;28457;55.680;37.656;2022-07-12T06:49:31;7.47;;;5.80;;
42810;SDS011;28457;55.680;37.656;2022-07-12T06:52:00;8.80;;;6.15;;
42810;SDS011;28457;55.680;37.656;2022-07-12T06:54:30;7.13;;;5.22;;
42810;SDS011;28457;55.680;37.656;2022-07-12T06:56:58;8.55;;;5.90;;
42810;SDS011;28457;55.680;37.656;2022-07-12T06:59:27;7.63;;;6.15;;
42810;SDS011;28457;55.680;37.656;2022-07-12T07:01:55;9.35;;;5.90;;
42810;SDS011;28457;55.680;37.656;2022-07-12T07:04:24;10.63;;;5.88;;
42810;SDS011;28457;55.680;37.656;2022-07-12T07:06:52;8.93;;;5.80;;
42810;SDS011;28457;55.680;37.656;2022-07-12T07:09:21;11.90;;;6.00;;
42810;SDS011;28457;55.680;37.656;2022-07-12T07:11:51;7.97;;;6.20;;
42810;SDS011;28457;55.680;37.656;2022-07-12T07:14:20;7.85;;;5.95;;
42810;SDS011;28457;55.680;37.656;2022-07-12T07:16:48;9.35;;;5.82;;
42810;SDS011;28457;55.680;37.656;2022-07-12T07:19:17;10.50;;;6.30;;
42810;SDS011;28457;55.680;37.656;2022-07-12T07:21:48;8.25;;;6.20;;
42810;SDS011;28457;55.680;37.656;2022-07-12T07:24:17;9.10;;;6.00;;
42810;SDS011;28457;55.680;37.656;2022-07-12T07:26:45;8.82;;;5.97;;
42810;SDS011;28457;55.680;37.656;2022-07-12T07:29:22;7.85;;;5.60;;
42810;SDS011;28457;55.680;37.656;2022-07-12T07:32:16;12.52;;;5.63;;
42810;SDS011;28457;55.680;37.656;2022-07-12T07:34:45;9.63;;;5.70;;
42810;SDS011;28457;55.680;37.656;2022-07-12T07:37:13;8.63;;;5.97;;
42810;SDS011;28457;55.680;37.656;2022-07-12T07:39:41;7.72;;;5.70;;
42810;SDS011;28457;55.680;37.656;2022-07-12T07:42:10;9.18;;;5.43;;
42810;SDS011;28457;55.680;37.656;2022-07-12T07:44:40;8.40;;;4.82;;
42810;SDS011;28457;55.680;37.656;2022-07-12T07:47:29;9.98;;;5.50;;
42810;SDS011;28457;55.680;37.656;2022-07-12T07:49:58;10.40;;;5.72;;
42810;SDS011;28457;55.680;37.656;2022-07-12T07:52:27;8.88;;;5.60;;
42810;SDS011;28457;55.680;37.656;2022-07-12T07:54:55;7.90;;;5.25;;
42810;SDS011;28457;55.680;37.656;2022-07-12T07:57:24;7.78;;;5.13;;
42810;SDS011;28457;55.680;37.656;2022-07-12T07:59:53;10.23;;;4.95;;
42810;SDS011;28457;55.680;37.656;2022-07-12T08:02:22;7.40;;;4.97;;
42810;SDS011;28457;55.680;37.656;2022-07-12T08:04:50;6.70;;;5.03;;
42810;SDS011;28457;55.680;37.656;2022-07-12T08:07:19;12.48;;;5.20;;
42810;SDS011;28457;55.680;37.656;2022-07-12T08:10:08;6.88;;;4.47;;
42810;SDS011;28457;55.680;37.656;2022-07-12T08:12:36;8.02;;;4.57;;
42810;SDS011;28457;55.680;37.656;2022-07-12T08:15:07;8.35;;;4.70;;
42810;SDS011;28457;55.680;37.656;2022-07-12T08:17:36;6.15;;;4.45;;
42810;SDS011;28457;55.680;37.656;2022-07-12T08:20:13;6.32;;;3.80;;
42810;SDS011;28457;55.680;37.656;2022-07-12T08:23:01;5.95;;;4.50;;
42810;SDS011;28457;55.680;37.656;2022-07-12T08:25:30;4.65;;;4.15;;
42810;SDS011;28457;55.680;37.656;2022-07-12T08:27:59;5.40;;;4.45;;
42810;SDS011;28457;55.680;37.656;2022-07-12T08:30:29;9.02;;;4.82;;
42810;SDS011;28457;55.680;37.656;2022-07-12T08:32:57;6.13;;;4.32;;
42810;SDS011;28457;55.680;37.656;2022-07-12T08:35:27;6.82;;;4.07;;
42810;SDS011;28457;55.680;37.656;2022-07-12T08:37:55;7.93;;;4.80;;
42810;SDS011;28457;55.680;37.656;2022-07-12T08:40:24;5.75;;;4.53;;
42810;SDS011;28457;55.680;37.656;2022-07-12T08:42:56;5.28;;;4.63;;
42810;SDS011;28457;55.680;37.656;2022-07-12T08:45:27;8.02;;;4.80;;
42810;SDS011;28457;55.680;37.656;2022-07-12T08:47:57;4.75;;;4.22;;
42810;SDS011;28457;55.680;37.656;2022-07-12T08:50:26;5.60;;;4.82;;
42810;SDS011;28457;55.680;37.656;2022-07-12T08:52:55;5.25;;;4.50;;
42810;SDS011;28457;55.680;37.656;2022-07-12T08:55:24;7.88;;;4.50;;
42810;SDS011;28457;55.680;37.656;2022-07-12T08:57:55;6.47;;;4.07;;
42810;SDS011;28457;55.680;37.656;2022-07-12T09:00:25;6.53;;;4.60;;
42810;SDS011;28457;55.680;37.656;2022-07-12T09:02:59;5.93;;;4.55;;
42810;SDS011;28457;55.680;37.656;2022-07-12T09:08:27;5.30;;;4.57;;
42810;SDS011;28457;55.680;37.656;2022-07-12T09:11:00;6.82;;;4.32;;
42810;SDS011;28457;55.680;37.656;2022-07-12T09:13:45;6.32;;;4.63;;
42810;SDS011;28457;55.680;37.656;2022-07-12T09:16:16;4.57;;;4.18;;
42810;SDS011;28457;55.680;37.656;2022-07-12T09:18:48;5.55;;;4.70;;
42810;SDS011;28457;55.680;37.656;2022-07-12T09:21:23;4.85;;;3.90;;
42810;SDS011;28457;55.680;37.656;2022-07-12T09:23:53;6.57;;;4.45;;
42810;SDS011;28457;55.680;37.656;2022-07-12T09:26:23;5.43;;;4.55;;
42810;SDS011;28457;55.680;37.656;2022-07-12T09:28:52;6.40;;;4.65;;
42810;SDS011;28457;55.680;37.656;2022-07-12T09:31:21;4.00;;;3.60;;
42810;SDS011;28457;55.680;37.656;2022-07-12T09:34:00;6.70;;;4.10;;
42810;SDS011;28457;55.680;37.656;2022-07-12T09:36:56;6.07;;;4.18;;
42810;SDS011;28457;55.680;37.656;2022-07-12T09:39:25;6.03;;;3.80;;
42810;SDS011;28457;55.680;37.656;2022-07-12T09:41:54;7.75;;;4.20;;
42810;SDS011;28457;55.680;37.656;2022-07-12T09:44:24;5.05;;;3.92;;
42810;SDS011;28457;55.680;37.656;2022-07-12T09:46:54;5.03;;;3.75;;
42810;SDS011;28457;55.680;37.656;2022-07-12T09:49:27;6.70;;;3.70;;
42810;SDS011;28457;55.680;37.656;2022-07-12T09:51:56;6.57;;;4.15;;
42810;SDS011;28457;55.680;37.656;2022-07-12T09:54:25;6.45;;;3.90;;
42810;SDS011;28457;55.680;37.656;2022-07-12T09:56:58;7.38;;;3.65;;
42810;SDS011;28457;55.680;37.656;2022-07-12T09:59:28;6.65;;;4.00;;
42810;SDS011;28457;55.680;37.656;2022-07-12T10:01:57;6.45;;;4.53;;
42810;SDS011;28457;55.680;37.656;2022-07-12T10:04:33;7.72;;;3.75;;
42810;SDS011;28457;55.680;37.656;2022-07-12T10:07:03;5.95;;;3.88;;
42810;SDS011;28457;55.680;37.656;2022-07-12T10:09:32;6.30;;;3.60;;
42810;SDS011;28457;55.680;37.656;2022-07-12T10:12:01;5.65;;;3.60;;
42810;SDS011;28457;55.680;37.656;2022-07-12T10:14:38;6.07;;;3.90;;
42810;SDS011;28457;55.680;37.656;2022-07-12T10:17:07;7.05;;;4.03;;
42810;SDS011;28457;55.680;37.656;2022-07-12T10:19:38;5.30;;;3.25;;
42810;SDS011;28457;55.680;37.656;2022-07-12T10:22:18;6.50;;;3.55;;
42810;SDS011;28457;55.680;37.656;2022-07-12T10:24:48;3.80;;;3.40;;
42810;SDS011;28457;55.680;37.656;2022-07-12T10:27:33;7.60;;;3.70;;
42810;SDS011;28457;55.680;37.656;2022-07-12T10:30:12;10.02;;;4.78;;
42810;SDS011;28457;55.680;37.656;2022-07-12T10:32:48;6.32;;;2.80;;
42810;SDS011;28457;55.680;37.656;2022-07-12T10:35:21;7.15;;;2.60;;
42810;SDS011;28457;55.680;37.656;2022-07-12T10:40:43;2.38;;;1.30;;
42810;SDS011;28457;55.680;37.656;2022-07-12T10:43:16;4.10;;;2.05;;
42810;SDS011;28457;55.680;37.656;2022-07-12T10:46:22;5.00;;;1.80;;
42810;SDS011;28457;55.680;37.656;2022-07-12T10:57:47;4.05;;;2.30;;
42810;SDS011;28457;55.680;37.656;2022-07-12T11:00:21;2.55;;;1.20;;
42810;SDS011;28457;55.680;37.656;2022-07-12T11:02:50;3.25;;;1.48;;
42810;SDS011;28457;55.680;37.656;2022-07-12T11:05:24;2.92;;;1.40;;
42810;SDS011;28457;55.680;37.656;2022-07-12T11:07:55;2.05;;;1.30;;
42810;SDS011;28457;55.680;37.656;2022-07-12T11:10:25;4.05;;;1.50;;
42810;SDS011;28457;55.680;37.656;2022-07-12T11:12:53;4.50;;;1.73;;
42810;SDS011;28457;55.680;37.656;2022-07-12T11:23:52;2.38;;;1.23;;
42810;SDS011;28457;55.680;37.656;2022-07-12T11:26:21;1.40;;;1.20;;
42810;SDS011;28457;55.680;37.656;2022-07-12T11:28:49;1.90;;;1.30;;
42810;SDS011;28457;55.680;37.656;2022-07-12T11:31:18;2.95;;;1.40;;
42810;SDS011;28457;55.680;37.656;2022-07-12T11:33:48;2.72;;;1.35;;
42810;SDS011;28457;55.680;37.656;2022-07-12T11:36:18;3.40;;;2.13;;
42810;SDS011;28457;55.680;37.656;2022-07-12T11:38:47;4.72;;;2.65;;
42810;SDS011;28457;55.680;37.656;2022-07-12T11:41:17;3.65;;;1.40;;
42810;SDS011;28457;55.680;37.656;2022-07-12T11:43:46;1.55;;;1.25;;
42810;SDS011;28457;55.680;37.656;2022-07-12T11:46:14;1.67;;;1.30;;
42810;SDS011;28457;55.680;37.656;2022-07-12T11:48:43;2.28;;;1.40;;
42810;SDS011;28457;55.680;37.656;2022-07-12T11:51:12;4.13;;;1.17;;
42810;SDS011;28457;55.680;37.656;2022-07-12T11:53:41;2.42;;;1.60;;
42810;SDS011;28457;55.680;37.656;2022-07-12T11:56:09;3.42;;;1.10;;
42810;SDS011;28457;55.680;37.656;2022-07-12T11:58:40;3.13;;;1.15;;
42810;SDS011;28457;55.680;37.656;2022-07-12T12:01:11;2.20;;;1.40;;
42810;SDS011;28457;55.680;37.656;2022-07-12T12:03:43;4.80;;;1.40;;
42810;SDS011;28457;55.680;37.656;2022-07-12T12:06:13;4.35;;;1.30;;
42810;SDS011;28457;55.680;37.656;2022-07-12T12:08:41;2.75;;;1.50;;
42810;SDS011;28457;55.680;37.656;2022-07-12T12:11:11;2.42;;;1.10;;
42810;SDS011;28457;55.680;37.656;2022-07-12T12:13:42;3.05;;;1.30;;
42810;SDS011;28457;55.680;37.656;2022-07-12T12:16:10;5.13;;;1.80;;
42810;SDS011;28457;55.680;37.656;2022-07-12T12:18:39;2.42;;;1.65;;
42810;SDS011;28457;55.680;37.656;2022-07-12T12:21:11;3.63;;;1.60;;
42810;SDS011;28457;55.680;37.656;2022-07-12T12:23:40;3.10;;;1.40;;
42810;SDS011;28457;55.680;37.656;2022-07-12T12:26:11;3.55;;;1.30;;
42810;SDS011;28457;55.680;37.656;2022-07-12T12:28:47;6.22;;;1.50;;
42810;SDS011;28457;55.680;37.656;2022-07-12T12:31:17;2.38;;;1.40;;
42810;SDS011;28457;55.680;37.656;2022-07-12T12:33:48;2.80;;;1.30;;
42810;SDS011;28457;55.680;37.656;2022-07-12T12:36:19;2.13;;;1.15;;
42810;SDS011;28457;55.680;37.656;2022-07-12T12:38:49;4.60;;;1.60;;
42810;SDS011;28457;55.680;37.656;2022-07-12T12:41:18;2.10;;;1.35;;
42810;SDS011;28457;55.680;37.656;2022-07-12T12:43:58;2.92;;;1.40;;
42810;SDS011;28457;55.680;37.656;2022-07-12T12:46:43;4.82;;;1.40;;
42810;SDS011;28457;55.680;37.656;2022-07-12T12:49:12;5.65;;;1.67;;
42810;SDS011;28457;55.680;37.656;2022-07-12T12:51:51;113.95;;;9.50;;
42810;SDS011;28457;55.680;37.656;2022-07-12T12:54:30;6.20;;;2.55;;
42810;SDS011;28457;55.680;37.656;2022-07-12T12:57:00;8.43;;;2.53;;
42810;SDS011;28457;55.680;37.656;2022-07-12T12:59:30;6.22;;;2.65;;
42810;SDS011;28457;55.680;37.656;2022-07-12T13:02:00;4.65;;;2.63;;
42810;SDS011;28457;55.680;37.656;2022-07-12T13:04:29;6.35;;;2.50;;
42810;SDS011;28457;55.680;37.656;2022-07-12T13:06:59;3.03;;;1.92;;
42810;SDS011;28457;55.680;37.656;2022-07-12T13:09:36;4.70;;;2.15;;
42810;SDS011;28457;55.680;37.656;2022-07-12T13:12:05;3.28;;;2.15;;
42810;SDS011;28457;55.680;37.656;2022-07-12T13:14:36;4.90;;;2.88;;
42810;SDS011;28457;55.680;37.656;2022-07-12T13:17:06;3.78;;;2.40;;
42810;SDS011;28457;55.680;37.656;2022-07-12T13:19:34;3.75;;;1.90;;
42810;SDS011;28457;55.680;37.656;2022-07-12T13:22:04;4.88;;;2.22;;
42810;SDS011;28457;55.680;37.656;2022-07-12T13:24:32;2.90;;;1.85;;
42810;SDS011;28457;55.680;37.656;2022-07-12T13:27:01;3.22;;;1.60;;
42810;SDS011;28457;55.680;37.656;2022-07-12T13:29:30;2.50;;;1.85;;
42810;SDS011;28457;55.680;37.656;2022-07-12T13:32:00;2.50;;;1.48;;
42810;SDS011;28457;55.680;37.656;2022-07-12T13:34:28;4.93;;;1.70;;
42810;SDS011;28457;55.680;37.656;2022-07-12T13:36:57;2.50;;;1.40;;
42810;SDS011;28457;55.680;37.656;2022-07-12T13:39:25;2.13;;;1.48;;
42810;SDS011;28457;55.680;37.656;2022-07-12T13:42:11;2.33;;;1.50;;
42810;SDS011;28457;55.680;37.656;2022-07-12T13:44:39;6.13;;;3.40;;
42810;SDS011;28457;55.680;37.656;2022-07-12T13:47:11;13.85;;;9.38;;
42810;SDS011;28457;55.680;37.656;2022-07-12T13:49:40;6.80;;;3.30;;
42810;SDS011;28457;55.680;37.656;2022-07-12T13:52:08;3.20;;;1.67;;
42810;SDS011;28457;55.680;37.656;2022-07-12T13:54:37;3.38;;;2.13;;
42810;SDS011;28457;55.680;37.656;2022-07-12T13:57:06;3.55;;;1.52;;
42810;SDS011;28457;55.680;37.656;2022-07-12T13:59:34;5.38;;;1.98;;
42810;SDS011;28457;55.680;37.656;2022-07-12T14:02:03;3.03;;;1.45;;
42810;SDS011;28457;55.680;37.656;2022-07-12T14:04:34;1.75;;;1.35;;
42810;SDS011;28457;55.680;37.656;2022-07-12T14:07:03;3.33;;;1.60;;
42810;SDS011;28457;55.680;37.656;2022-07-12T14:09:31;3.38;;;2.13;;
42810;SDS011;28457;55.680;37.656;2022-07-12T14:12:00;3.33;;;1.73;;
42810;SDS011;28457;55.680;37.656;2022-07-12T14:14:29;3.72;;;2.20;;
42810;SDS011;28457;55.680;37.656;2022-07-12T14:17:15;8.40;;;3.45;;
42810;SDS011;28457;55.680;37.656;2022-07-12T14:19:45;5.07;;;2.55;;
42810;SDS011;28457;55.680;37.656;2022-07-12T14:22:14;5.15;;;2.17;;
42810;SDS011;28457;55.680;37.656;2022-07-12T14:24:42;4.45;;;2.22;;
42810;SDS011;28457;55.680;37.656;2022-07-12T14:27:11;3.92;;;2.30;;
42810;SDS011;28457;55.680;37.656;2022-07-12T14:29:39;3.72;;;2.47;;
42810;SDS011;28457;55.680;37.656;2022-07-12T14:32:08;3.80;;;2.58;;
42810;SDS011;28457;55.680;37.656;2022-07-12T14:34:37;3.13;;;2.10;;
42810;SDS011;28457;55.680;37.656;2022-07-12T14:37:07;5.32;;;2.70;;
42810;SDS011;28457;55.680;37.656;2022-07-12T14:39:35;2.95;;;1.67;;
42810;SDS011;28457;55.680;37.656;2022-07-12T14:42:05;2.97;;;1.88;;
42810;SDS011;28457;55.680;37.656;2022-07-12T14:44:34;3.45;;;2.00;;
42810;SDS011;28457;55.680;37.656;2022-07-12T14:47:03;2.90;;;1.95;;
42810;SDS011;28457;55.680;37.656;2022-07-12T14:49:31;5.45;;;2.63;;
42810;SDS011;28457;55.680;37.656;2022-07-12T14:52:00;4.25;;;2.90;;
42810;SDS011;28457;55.680;37.656;2022-07-12T14:54:30;3.63;;;2.58;;
42810;SDS011;28457;55.680;37.656;2022-07-12T14:56:59;4.15;;;2.25;;
42810;SDS011;28457;55.680;37.656;2022-07-12T14:59:28;2.67;;;2.25;;
42810;SDS011;28457;55.680;37.656;2022-07-12T15:01:56;2.40;;;2.00;;
42810;SDS011;28457;55.680;37.656;2022-07-12T15:04:26;5.68;;;2.47;;
42810;SDS011;28457;55.680;37.656;2022-07-12T15:06:55;5.63;;;2.85;;
42810;SDS011;28457;55.680;37.656;2022-07-12T15:09:23;5.70;;;2.83;;
42810;SDS011;28457;55.680;37.656;2022-07-12T15:11:53;2.40;;;2.15;;
42810;SDS011;28457;55.680;37.656;2022-07-12T15:14:22;6.15;;;2.33;;